Terminal Aerodrome Forecast
Issued by NWS

Home | Current Version | Previous Version | Text Only | Print | Product List | Glossary Off
Versions: 1 2 3 4 5 6 7 8 9 10 11 12 13 14 15 16 17 18 19 20 21 22

008
FTUS43 KOAX 240953 AAA
TAFCDR
TAF AMD
KCDR 240953Z 2410/2506 35006KT P6SM OVC006
     FM241100 02007KT P6SM OVC004
     FM241700 02008KT P6SM SCT009 OVC015=

USA.gov is the U.S. government's official web portal to all federal, state and local government web resources and services.